sensor_id;sensor_type;location;lat;lon;timestamp;pressure;altitude;pressure_sealevel;temperature;humidity
43161;BME280;40968;52.342;5.528;2022-10-31T00:01:44;102034.97;;;12.92;75.16
43161;BME280;40968;52.342;5.528;2022-10-31T00:04:10;101913.88;;;12.38;75.63
43161;BME280;40968;52.342;5.528;2022-10-31T00:06:37;102096.16;;;13.45;75.00
43161;BME280;40968;52.342;5.528;2022-10-31T00:09:04;102102.50;;;13.44;75.03
43161;BME280;40968;52.342;5.528;2022-10-31T00:11:31;102096.28;;;13.43;75.32
43161;BME280;40968;52.342;5.528;2022-10-31T00:13:57;102050.28;;;13.19;75.04
43161;BME280;40968;52.342;5.528;2022-10-31T00:16:27;101985.28;;;12.71;74.83
43161;BME280;40968;52.342;5.528;2022-10-31T00:18:57;102001.78;;;12.79;75.43
43161;BME280;40968;52.342;5.528;2022-10-31T00:21:25;102049.78;;;13.00;75.10
43161;BME280;40968;52.342;5.528;2022-10-31T00:23:51;102084.84;;;13.25;75.32
43161;BME280;40968;52.342;5.528;2022-10-31T00:26:18;102110.22;;;13.36;75.06
43161;BME280;40968;52.342;5.528;2022-10-31T00:28:45;102108.69;;;13.32;75.27
43161;BME280;40968;52.342;5.528;2022-10-31T00:31:13;102112.34;;;13.31;75.37
43161;BME280;40968;52.342;5.528;2022-10-31T00:33:41;102000.84;;;12.66;75.36
43161;BME280;40968;52.342;5.528;2022-10-31T00:36:11;102119.66;;;13.29;75.33
43161;BME280;40968;52.342;5.528;2022-10-31T00:38:38;101995.06;;;12.57;75.59
43161;BME280;40968;52.342;5.528;2022-10-31T00:41:04;101925.66;;;12.08;75.76
43161;BME280;40968;52.342;5.528;2022-10-31T00:43:31;102114.69;;;13.22;75.68
43161;BME280;40968;52.342;5.528;2022-10-31T00:45:58;102112.09;;;13.21;76.10
43161;BME280;40968;52.342;5.528;2022-10-31T00:48:24;102008.53;;;12.57;75.71
43161;BME280;40968;52.342;5.528;2022-10-31T00:50:52;102112.38;;;13.16;75.86
43161;BME280;40968;52.342;5.528;2022-10-31T00:53:19;102100.59;;;13.04;76.07
43161;BME280;40968;52.342;5.528;2022-10-31T00:55:46;102120.66;;;13.13;75.94
43161;BME280;40968;52.342;5.528;2022-10-31T00:58:12;102111.06;;;13.09;76.26
43161;BME280;40968;52.342;5.528;2022-10-31T01:00:39;102107.50;;;13.08;76.66
43161;BME280;40968;52.342;5.528;2022-10-31T01:03:06;101889.16;;;11.75;76.31
43161;BME280;40968;52.342;5.528;2022-10-31T01:05:32;102062.78;;;12.79;76.08
43161;BME280;40968;52.342;5.528;2022-10-31T01:08:00;102053.38;;;12.71;76.41
43161;BME280;40968;52.342;5.528;2022-10-31T01:10:27;102116.06;;;13.01;76.47
43161;BME280;40968;52.342;5.528;2022-10-31T01:12:53;102121.66;;;12.98;76.44
43161;BME280;40968;52.342;5.528;2022-10-31T01:15:22;102071.06;;;12.61;76.40
43161;BME280;40968;52.342;5.528;2022-10-31T01:17:48;102073.66;;;12.48;76.32
43161;BME280;40968;52.342;5.528;2022-10-31T01:20:16;102123.97;;;12.89;76.44
43161;BME280;40968;52.342;5.528;2022-10-31T01:22:43;102061.72;;;12.52;76.57
43161;BME280;40968;52.342;5.528;2022-10-31T01:25:11;102131.47;;;12.84;76.61
43161;BME280;40968;52.342;5.528;2022-10-31T01:27:37;102054.44;;;12.40;76.55
43161;BME280;40968;52.342;5.528;2022-10-31T01:30:05;102065.59;;;12.48;76.78
43161;BME280;40968;52.342;5.528;2022-10-31T01:32:32;101926.28;;;11.68;76.95
43161;BME280;40968;52.342;5.528;2022-10-31T01:34:58;102117.72;;;12.74;76.95
43161;BME280;40968;52.342;5.528;2022-10-31T01:37:25;102108.03;;;12.72;76.65
43161;BME280;40968;52.342;5.528;2022-10-31T01:39:52;102011.06;;;12.17;76.97
43161;BME280;40968;52.342;5.528;2022-10-31T01:42:21;102091.88;;;12.72;77.27
43161;BME280;40968;52.342;5.528;2022-10-31T01:44:52;102099.94;;;12.72;77.05
43161;BME280;40968;52.342;5.528;2022-10-31T01:47:24;102091.88;;;12.72;76.99
43161;BME280;40968;52.342;5.528;2022-10-31T01:49:55;102034.28;;;12.33;76.67
43161;BME280;40968;52.342;5.528;2022-10-31T01:52:24;101970.53;;;11.91;76.83
43161;BME280;40968;52.342;5.528;2022-10-31T01:54:57;101923.22;;;11.60;76.63
43161;BME280;40968;52.342;5.528;2022-10-31T01:57:29;101792.66;;;10.85;76.62
43161;BME280;40968;52.342;5.528;2022-10-31T02:00:00;101775.41;;;10.75;76.74
43161;BME280;40968;52.342;5.528;2022-10-31T02:02:30;102080.00;;;12.62;76.53
43161;BME280;40968;52.342;5.528;2022-10-31T02:04:57;102089.88;;;12.61;76.44
43161;BME280;40968;52.342;5.528;2022-10-31T02:07:30;102027.56;;;12.25;76.62
43161;BME280;40968;52.342;5.528;2022-10-31T02:10:00;102081.13;;;12.57;76.51
43161;BME280;40968;52.342;5.528;2022-10-31T02:12:28;102040.75;;;12.30;76.46
43161;BME280;40968;52.342;5.528;2022-10-31T02:14:56;102089.59;;;12.51;76.31
43161;BME280;40968;52.342;5.528;2022-10-31T02:17:23;102085.38;;;12.47;76.32
43161;BME280;40968;52.342;5.528;2022-10-31T02:19:52;102056.56;;;12.20;76.41
43161;BME280;40968;52.342;5.528;2022-10-31T02:22:26;101922.34;;;11.45;76.29
43161;BME280;40968;52.342;5.528;2022-10-31T02:25:08;101962.25;;;11.66;76.48
43161;BME280;40968;52.342;5.528;2022-10-31T02:28:05;102011.44;;;11.97;76.31
43161;BME280;40968;52.342;5.528;2022-10-31T02:30:41;102080.66;;;12.36;76.23
43161;BME280;40968;52.342;5.528;2022-10-31T02:33:20;101996.81;;;11.86;76.20
43161;BME280;40968;52.342;5.528;2022-10-31T02:35:57;102083.66;;;12.32;75.93
43161;BME280;40968;52.342;5.528;2022-10-31T02:38:35;101980.09;;;11.67;76.17
43161;BME280;40968;52.342;5.528;2022-10-31T02:41:10;102052.81;;;12.08;76.87
43161;BME280;40968;52.342;5.528;2022-10-31T02:43:49;102063.47;;;12.10;75.85
43161;BME280;40968;52.342;5.528;2022-10-31T02:46:25;102093.13;;;12.23;76.63
43161;BME280;40968;52.342;5.528;2022-10-31T02:49:00;101992.56;;;11.68;77.46
43161;BME280;40968;52.342;5.528;2022-10-31T02:51:29;102016.19;;;11.77;77.71
43161;BME280;40968;52.342;5.528;2022-10-31T02:53:55;102034.97;;;11.77;77.02
43161;BME280;40968;52.342;5.528;2022-10-31T02:56:22;101960.28;;;11.39;75.57
43161;BME280;40968;52.342;5.528;2022-10-31T02:58:51;102082.84;;;12.15;76.58
43161;BME280;40968;52.342;5.528;2022-10-31T03:01:26;102094.06;;;12.07;74.72
43161;BME280;40968;52.342;5.528;2022-10-31T03:04:09;102072.81;;;11.88;74.10
43161;BME280;40968;52.342;5.528;2022-10-31T03:06:45;102035.41;;;11.55;73.80
43161;BME280;40968;52.342;5.528;2022-10-31T03:09:21;101975.50;;;11.08;73.73
43161;BME280;40968;52.342;5.528;2022-10-31T03:11:54;102092.69;;;11.70;73.97
43161;BME280;40968;52.342;5.528;2022-10-31T03:14:31;102002.94;;;11.13;75.04
43161;BME280;40968;52.342;5.528;2022-10-31T03:17:01;102097.38;;;11.66;75.70
43161;BME280;40968;52.342;5.528;2022-10-31T03:19:34;102092.13;;;11.65;75.70
43161;BME280;40968;52.342;5.528;2022-10-31T03:22:07;101936.81;;;10.66;75.30
43161;BME280;40968;52.342;5.528;2022-10-31T03:24:39;102094.19;;;11.59;74.75
43161;BME280;40968;52.342;5.528;2022-10-31T03:27:08;102097.16;;;11.55;74.40
43161;BME280;40968;52.342;5.528;2022-10-31T03:29:37;102097.50;;;11.49;75.17
43161;BME280;40968;52.342;5.528;2022-10-31T03:32:07;102102.19;;;11.45;75.29
43161;BME280;40968;52.342;5.528;2022-10-31T03:34:37;102100.63;;;11.41;75.74
43161;BME280;40968;52.342;5.528;2022-10-31T03:37:07;102092.66;;;11.39;76.54
43161;BME280;40968;52.342;5.528;2022-10-31T03:39:36;102007.22;;;10.85;76.62
43161;BME280;40968;52.342;5.528;2022-10-31T03:42:07;102049.34;;;11.15;77.12
43161;BME280;40968;52.342;5.528;2022-10-31T03:44:37;102002.78;;;10.84;77.22
43161;BME280;40968;52.342;5.528;2022-10-31T03:47:05;101812.13;;;9.62;77.34
43161;BME280;40968;52.342;5.528;2022-10-31T03:49:32;102052.53;;;11.06;77.68
43161;BME280;40968;52.342;5.528;2022-10-31T03:52:02;102037.75;;;10.99;77.99
43161;BME280;40968;52.342;5.528;2022-10-31T03:54:37;102105.66;;;11.31;78.16
43161;BME280;40968;52.342;5.528;2022-10-31T03:57:10;102092.34;;;11.30;78.28
43161;BME280;40968;52.342;5.528;2022-10-31T03:59:43;101997.34;;;10.70;78.36
43161;BME280;40968;52.342;5.528;2022-10-31T04:02:14;101968.56;;;10.57;78.11
43161;BME280;40968;52.342;5.528;2022-10-31T04:04:42;102094.22;;;11.27;78.63
43161;BME280;40968;52.342;5.528;2022-10-31T04:07:12;102042.69;;;10.90;77.95
43161;BME280;40968;52.342;5.528;2022-10-31T04:09:42;101997.53;;;10.67;78.13
43161;BME280;40968;52.342;5.528;2022-10-31T04:12:12;101929.00;;;10.29;78.34
43161;BME280;40968;52.342;5.528;2022-10-31T04:14:41;102065.50;;;10.98;78.27
43161;BME280;40968;52.342;5.528;2022-10-31T04:17:12;102104.28;;;11.24;78.57
43161;BME280;40968;52.342;5.528;2022-10-31T04:19:39;101977.88;;;10.50;78.45
43161;BME280;40968;52.342;5.528;2022-10-31T04:22:06;101989.22;;;10.55;78.63
43161;BME280;40968;52.342;5.528;2022-10-31T04:24:34;102025.63;;;10.75;78.65
43161;BME280;40968;52.342;5.528;2022-10-31T04:27:02;101973.84;;;10.43;78.84
43161;BME280;40968;52.342;5.528;2022-10-31T04:29:28;101961.56;;;10.39;79.10
43161;BME280;40968;52.342;5.528;2022-10-31T04:31:55;101928.06;;;10.14;79.03
43161;BME280;40968;52.342;5.528;2022-10-31T04:34:21;102099.28;;;11.18;78.71
43161;BME280;40968;52.342;5.528;2022-10-31T04:36:48;102041.28;;;10.83;78.48
43161;BME280;40968;52.342;5.528;2022-10-31T04:39:15;102015.69;;;10.61;78.67
43161;BME280;40968;52.342;5.528;2022-10-31T04:41:42;101937.78;;;10.15;78.46
43161;BME280;40968;52.342;5.528;2022-10-31T04:44:09;102093.56;;;11.08;78.56
43161;BME280;40968;52.342;5.528;2022-10-31T04:46:35;102051.84;;;10.86;79.11
43161;BME280;40968;52.342;5.528;2022-10-31T04:49:02;102081.44;;;11.01;78.94
43161;BME280;40968;52.342;5.528;2022-10-31T04:51:29;102040.94;;;10.73;79.48
43161;BME280;40968;52.342;5.528;2022-10-31T04:53:55;101908.91;;;9.88;79.43
43161;BME280;40968;52.342;5.528;2022-10-31T04:56:22;102073.31;;;10.86;79.75
43161;BME280;40968;52.342;5.528;2022-10-31T04:58:50;102052.72;;;10.71;79.64
43161;BME280;40968;52.342;5.528;2022-10-31T05:01:16;102076.75;;;10.88;79.83
43161;BME280;40968;52.342;5.528;2022-10-31T05:03:43;101976.19;;;10.32;79.77
43161;BME280;40968;52.342;5.528;2022-10-31T05:06:09;102087.06;;;10.96;79.90
43161;BME280;40968;52.342;5.528;2022-10-31T05:08:36;102040.06;;;10.73;79.43
43161;BME280;40968;52.342;5.528;2022-10-31T05:11:03;102077.38;;;10.93;79.21
43161;BME280;40968;52.342;5.528;2022-10-31T05:13:30;101863.78;;;9.65;79.57
43161;BME280;40968;52.342;5.528;2022-10-31T05:15:58;101992.84;;;10.38;79.75
43161;BME280;40968;52.342;5.528;2022-10-31T05:18:25;102084.47;;;10.94;79.76
43161;BME280;40968;52.342;5.528;2022-10-31T05:20:51;102078.69;;;10.86;79.59
43161;BME280;40968;52.342;5.528;2022-10-31T05:23:18;102084.56;;;10.93;79.38
43161;BME280;40968;52.342;5.528;2022-10-31T05:25:44;101917.56;;;9.93;79.47
43161;BME280;40968;52.342;5.528;2022-10-31T05:28:11;102045.78;;;10.67;79.39
43161;BME280;40968;52.342;5.528;2022-10-31T05:30:37;102052.72;;;10.71;79.88
43161;BME280;40968;52.342;5.528;2022-10-31T05:33:05;102088.09;;;10.93;79.24
43161;BME280;40968;52.342;5.528;2022-10-31T05:35:32;102052.81;;;10.69;78.85
43161;BME280;40968;52.342;5.528;2022-10-31T05:37:59;101846.81;;;9.48;78.60
43161;BME280;40968;52.342;5.528;2022-10-31T05:40:27;102016.94;;;10.38;79.22
43161;BME280;40968;52.342;5.528;2022-10-31T05:42:55;102027.88;;;10.51;78.47
43161;BME280;40968;52.342;5.528;2022-10-31T05:45:23;102079.63;;;10.85;79.44
43161;BME280;40968;52.342;5.528;2022-10-31T05:47:51;102020.69;;;10.52;79.59
43161;BME280;40968;52.342;5.528;2022-10-31T05:50:19;102030.97;;;10.59;79.02
43161;BME280;40968;52.342;5.528;2022-10-31T05:52:45;102077.28;;;10.79;78.51
43161;BME280;40968;52.342;5.528;2022-10-31T05:55:12;102074.78;;;10.76;77.72
43161;BME280;40968;52.342;5.528;2022-10-31T05:57:39;101856.88;;;9.43;78.54
43161;BME280;40968;52.342;5.528;2022-10-31T06:00:06;101850.59;;;9.44;78.42
43161;BME280;40968;52.342;5.528;2022-10-31T06:02:33;101911.66;;;9.71;78.17
43161;BME280;40968;52.342;5.528;2022-10-31T06:05:00;102008.69;;;10.25;77.81
43161;BME280;40968;52.342;5.528;2022-10-31T06:07:32;102063.94;;;10.61;77.98
43161;BME280;40968;52.342;5.528;2022-10-31T06:09:59;101984.44;;;10.11;77.53
43161;BME280;40968;52.342;5.528;2022-10-31T06:12:25;102005.16;;;10.25;77.41
43161;BME280;40968;52.342;5.528;2022-10-31T06:14:52;102043.16;;;10.49;78.18
43161;BME280;40968;52.342;5.528;2022-10-31T06:17:18;101827.38;;;9.11;76.92
43161;BME280;40968;52.342;5.528;2022-10-31T06:19:45;102009.19;;;10.16;77.95
43161;BME280;40968;52.342;5.528;2022-10-31T06:22:11;101978.22;;;9.94;78.27
43161;BME280;40968;52.342;5.528;2022-10-31T06:24:39;102070.94;;;10.48;78.85
43161;BME280;40968;52.342;5.528;2022-10-31T06:27:06;102012.75;;;10.17;79.50
43161;BME280;40968;52.342;5.528;2022-10-31T06:29:32;101992.03;;;10.03;80.10
43161;BME280;40968;52.342;5.528;2022-10-31T06:31:59;102074.22;;;10.53;79.74
43161;BME280;40968;52.342;5.528;2022-10-31T06:34:25;102072.59;;;10.51;79.04
43161;BME280;40968;52.342;5.528;2022-10-31T06:36:52;102046.72;;;10.32;79.65
43161;BME280;40968;52.342;5.528;2022-10-31T06:39:18;102020.78;;;10.17;79.61
43161;BME280;40968;52.342;5.528;2022-10-31T06:41:48;102109.41;;;10.47;79.06
43161;BME280;40968;52.342;5.528;2022-10-31T06:44:14;101996.97;;;9.94;79.69
43161;BME280;40968;52.342;5.528;2022-10-31T06:46:41;101959.75;;;9.72;79.77
43161;BME280;40968;52.342;5.528;2022-10-31T06:49:08;102029.22;;;10.09;80.08
43161;BME280;40968;52.342;5.528;2022-10-31T06:51:34;102028.34;;;10.08;80.34
43161;BME280;40968;52.342;5.528;2022-10-31T06:54:01;102085.69;;;10.39;80.27
43161;BME280;40968;52.342;5.528;2022-10-31T06:56:27;102092.00;;;10.38;80.44
43161;BME280;40968;52.342;5.528;2022-10-31T06:58:55;102100.91;;;10.39;80.53
43161;BME280;40968;52.342;5.528;2022-10-31T07:01:22;101893.53;;;9.25;80.87
43161;BME280;40968;52.342;5.528;2022-10-31T07:03:49;101993.75;;;9.88;80.84
43161;BME280;40968;52.342;5.528;2022-10-31T07:06:15;101886.53;;;9.22;80.81
43161;BME280;40968;52.342;5.528;2022-10-31T07:08:42;101980.75;;;9.80;80.77
43161;BME280;40968;52.342;5.528;2022-10-31T07:11:09;101958.41;;;9.63;80.45
43161;BME280;40968;52.342;5.528;2022-10-31T07:13:35;102090.88;;;10.42;80.48
43161;BME280;40968;52.342;5.528;2022-10-31T07:16:04;102090.88;;;10.42;80.46
43161;BME280;40968;52.342;5.528;2022-10-31T07:18:32;102090.97;;;10.41;80.51
43161;BME280;40968;52.342;5.528;2022-10-31T07:20:59;101971.31;;;9.73;80.66
43161;BME280;40968;52.342;5.528;2022-10-31T07:23:26;102063.38;;;10.21;81.10
43161;BME280;40968;52.342;5.528;2022-10-31T07:25:54;102042.88;;;10.20;81.50
43161;BME280;40968;52.342;5.528;2022-10-31T07:28:22;101918.13;;;9.49;81.82
43161;BME280;40968;52.342;5.528;2022-10-31T07:30:49;102034.09;;;10.18;82.27
43161;BME280;40968;52.342;5.528;2022-10-31T07:33:17;102000.88;;;10.05;82.42
43161;BME280;40968;52.342;5.528;2022-10-31T07:35:44;102086.66;;;10.54;82.32
43161;BME280;40968;52.342;5.528;2022-10-31T07:38:12;102066.06;;;10.39;82.53
43161;BME280;40968;52.342;5.528;2022-10-31T07:40:40;102089.97;;;10.59;82.53
43161;BME280;40968;52.342;5.528;2022-10-31T07:43:08;101671.19;;;8.11;82.44
43161;BME280;40968;52.342;5.528;2022-10-31T07:45:35;102063.03;;;10.45;82.57
43161;BME280;40968;52.342;5.528;2022-10-31T07:48:01;102021.13;;;10.26;82.80
43161;BME280;40968;52.342;5.528;2022-10-31T07:50:31;102104.28;;;10.76;82.68
43161;BME280;40968;52.342;5.528;2022-10-31T07:52:59;102095.09;;;10.80;82.67
43161;BME280;40968;52.342;5.528;2022-10-31T07:55:26;102059.63;;;10.59;82.94
43161;BME280;40968;52.342;5.528;2022-10-31T07:57:58;102075.72;;;10.75;83.00
43161;BME280;40968;52.342;5.528;2022-10-31T08:00:25;102041.72;;;10.59;83.20
43161;BME280;40968;52.342;5.528;2022-10-31T08:02:59;101848.53;;;9.49;83.05
43161;BME280;40968;52.342;5.528;2022-10-31T08:05:26;102102.81;;;11.02;83.44
43161;BME280;40968;52.342;5.528;2022-10-31T08:07:54;101915.41;;;10.00;83.62
43161;BME280;40968;52.342;5.528;2022-10-31T08:10:21;102096.00;;;11.13;83.64
43161;BME280;40968;52.342;5.528;2022-10-31T08:12:55;102101.88;;;11.19;83.82
43161;BME280;40968;52.342;5.528;2022-10-31T08:15:22;102028.84;;;10.82;83.96
43161;BME280;40968;52.342;5.528;2022-10-31T08:17:48;102105.66;;;11.31;84.25
43161;BME280;40968;52.342;5.528;2022-10-31T08:20:15;102104.44;;;11.37;84.18
43161;BME280;40968;52.342;5.528;2022-10-31T08:22:41;102075.03;;;11.19;84.26
43161;BME280;40968;52.342;5.528;2022-10-31T08:25:09;102045.97;;;11.11;84.20
43161;BME280;40968;52.342;5.528;2022-10-31T08:27:36;102115.09;;;11.54;84.17
43161;BME280;40968;52.342;5.528;2022-10-31T08:30:03;102057.59;;;11.26;84.01
43161;BME280;40968;52.342;5.528;2022-10-31T08:32:30;102109.28;;;11.62;83.82
43161;BME280;40968;52.342;5.528;2022-10-31T08:34:56;101993.69;;;11.03;83.79
43161;BME280;40968;52.342;5.528;2022-10-31T08:37:23;102007.34;;;11.14;83.67
43161;BME280;40968;52.342;5.528;2022-10-31T08:39:50;102081.44;;;11.63;84.15
43161;BME280;40968;52.342;5.528;2022-10-31T08:42:18;102104.16;;;11.88;84.21
43161;BME280;40968;52.342;5.528;2022-10-31T08:44:45;102068.34;;;11.73;84.27
43161;BME280;40968;52.342;5.528;2022-10-31T08:47:11;102070.56;;;11.81;84.27
43161;BME280;40968;52.342;5.528;2022-10-31T08:49:38;101791.75;;;10.24;83.61
43161;BME280;40968;52.342;5.528;2022-10-31T08:52:04;102103.50;;;12.15;83.82
43161;BME280;40968;52.342;5.528;2022-10-31T08:54:31;101892.13;;;10.97;83.73
43161;BME280;40968;52.342;5.528;2022-10-31T08:56:57;101853.75;;;10.80;83.49
43161;BME280;40968;52.342;5.528;2022-10-31T08:59:26;102105.91;;;12.34;83.62
43161;BME280;40968;52.342;5.528;2022-10-31T09:01:52;102102.06;;;12.38;83.30
43161;BME280;40968;52.342;5.528;2022-10-31T09:04:19;102112.66;;;12.41;83.42
43161;BME280;40968;52.342;5.528;2022-10-31T09:06:45;102000.28;;;11.88;82.91
43161;BME280;40968;52.342;5.528;2022-10-31T09:09:12;102003.06;;;12.01;82.86
43161;BME280;40968;52.342;5.528;2022-10-31T09:11:38;101938.84;;;11.68;82.89
43161;BME280;40968;52.342;5.528;2022-10-31T09:14:05;102072.22;;;12.57;82.84
43161;BME280;40968;52.342;5.528;2022-10-31T09:16:33;102017.41;;;12.31;82.53
43161;BME280;40968;52.342;5.528;2022-10-31T09:19:00;102070.00;;;12.64;82.43
43161;BME280;40968;52.342;5.528;2022-10-31T09:21:26;101967.50;;;12.12;82.16
43161;BME280;40968;52.342;5.528;2022-10-31T09:23:53;102061.44;;;12.71;82.15
43161;BME280;40968;52.342;5.528;2022-10-31T09:26:20;102014.38;;;12.50;82.08
43161;BME280;40968;52.342;5.528;2022-10-31T09:28:46;102021.97;;;12.57;81.82
43161;BME280;40968;52.342;5.528;2022-10-31T09:31:13;101908.75;;;11.91;81.52
43161;BME280;40968;52.342;5.528;2022-10-31T09:33:41;102050.44;;;12.89;81.78
43161;BME280;40968;52.342;5.528;2022-10-31T09:36:08;101848.72;;;11.64;81.64
43161;BME280;40968;52.342;5.528;2022-10-31T09:38:34;102024.59;;;12.86;81.95
43161;BME280;40968;52.342;5.528;2022-10-31T09:41:07;102021.13;;;12.99;81.67
43161;BME280;40968;52.342;5.528;2022-10-31T09:43:50;102049.66;;;13.29;81.20
43161;BME280;40968;52.342;5.528;2022-10-31T09:46:29;101993.38;;;13.11;80.71
43161;BME280;40968;52.342;5.528;2022-10-31T09:49:23;101893.78;;;12.58;80.39
43161;BME280;40968;52.342;5.528;2022-10-31T09:51:55;101866.22;;;12.54;80.10
43161;BME280;40968;52.342;5.528;2022-10-31T09:54:30;102048.53;;;13.73;80.45
43161;BME280;40968;52.342;5.528;2022-10-31T09:56:59;102036.03;;;13.85;80.08
43161;BME280;40968;52.342;5.528;2022-10-31T09:59:29;101756.78;;;12.29;79.34
43161;BME280;40968;52.342;5.528;2022-10-31T10:02:00;102031.28;;;14.01;79.41
43161;BME280;40968;52.342;5.528;2022-10-31T10:04:36;101928.25;;;13.46;78.77
43161;BME280;40968;52.342;5.528;2022-10-31T10:07:13;101978.81;;;13.81;78.42
43161;BME280;40968;52.342;5.528;2022-10-31T10:09:41;101938.59;;;13.65;77.18
43161;BME280;40968;52.342;5.528;2022-10-31T10:12:15;102003.06;;;14.07;76.80
43161;BME280;40968;52.342;5.528;2022-10-31T10:14:54;101987.50;;;13.98;76.22
43161;BME280;40968;52.342;5.528;2022-10-31T10:17:32;101973.19;;;13.97;75.90
43161;BME280;40968;52.342;5.528;2022-10-31T10:20:21;101923.28;;;13.79;76.41
43161;BME280;40968;52.342;5.528;2022-10-31T10:22:55;101967.03;;;14.08;75.75
43161;BME280;40968;52.342;5.528;2022-10-31T10:25:32;101819.75;;;13.31;75.78
43161;BME280;40968;52.342;5.528;2022-10-31T10:28:09;101976.72;;;14.23;74.95
43161;BME280;40968;52.342;5.528;2022-10-31T10:30:40;101948.69;;;14.13;74.78
43161;BME280;40968;52.342;5.528;2022-10-31T10:33:12;101885.22;;;13.83;74.96
43161;BME280;40968;52.342;5.528;2022-10-31T10:35:45;101955.78;;;14.27;74.00
43161;BME280;40968;52.342;5.528;2022-10-31T10:38:17;101970.88;;;14.42;74.19
43161;BME280;40968;52.342;5.528;2022-10-31T10:40:47;101942.84;;;14.32;73.87
43161;BME280;40968;52.342;5.528;2022-10-31T10:43:23;101758.91;;;13.29;73.70
43161;BME280;40968;52.342;5.528;2022-10-31T10:46:00;101866.34;;;13.96;73.41
43161;BME280;40968;52.342;5.528;2022-10-31T10:48:52;101854.56;;;14.10;72.55
43161;BME280;40968;52.342;5.528;2022-10-31T10:51:25;101909.97;;;14.51;73.22
43161;BME280;40968;52.342;5.528;2022-10-31T10:54:13;101904.56;;;14.51;72.52
43161;BME280;40968;52.342;5.528;2022-10-31T10:56:52;101914.25;;;14.67;72.86
43161;BME280;40968;52.342;5.528;2022-10-31T10:59:22;101909.50;;;14.70;72.57
43161;BME280;40968;52.342;5.528;2022-10-31T11:01:50;101975.88;;;15.21;72.73
43161;BME280;40968;52.342;5.528;2022-10-31T11:04:30;101909.59;;;14.93;72.51
43161;BME280;40968;52.342;5.528;2022-10-31T11:07:04;101884.41;;;14.81;72.19
43161;BME280;40968;52.342;5.528;2022-10-31T11:09:31;101960.81;;;15.30;72.28
43161;BME280;40968;52.342;5.528;2022-10-31T11:12:05;101833.56;;;14.64;71.90
43161;BME280;40968;52.342;5.528;2022-10-31T11:14:36;101843.81;;;14.83;71.80
43161;BME280;40968;52.342;5.528;2022-10-31T11:17:14;101923.13;;;15.40;71.46
43161;BME280;40968;52.342;5.528;2022-10-31T11:19:43;101814.13;;;14.83;71.71
43161;BME280;40968;52.342;5.528;2022-10-31T11:22:16;101648.31;;;13.93;71.72
43161;BME280;40968;52.342;5.528;2022-10-31T11:24:43;101748.97;;;14.65;71.70
43161;BME280;40968;52.342;5.528;2022-10-31T11:27:15;101854.84;;;15.38;71.30
43161;BME280;40968;52.342;5.528;2022-10-31T11:29:42;101783.91;;;15.13;70.93
43161;BME280;40968;52.342;5.528;2022-10-31T11:32:18;101825.16;;;15.61;71.12
43161;BME280;40968;52.342;5.528;2022-10-31T11:34:48;101827.34;;;15.78;71.00
43161;BME280;40968;52.342;5.528;2022-10-31T11:37:20;101742.03;;;15.41;70.79
43161;BME280;40968;52.342;5.528;2022-10-31T11:39:50;101846.50;;;16.20;70.27
43161;BME280;40968;52.342;5.528;2022-10-31T11:42:21;101855.84;;;16.28;69.69
43161;BME280;40968;52.342;5.528;2022-10-31T11:44:49;101860.00;;;16.32;68.38
43161;BME280;40968;52.342;5.528;2022-10-31T11:47:17;101875.97;;;16.35;68.11
43161;BME280;40968;52.342;5.528;2022-10-31T11:49:47;101874.00;;;16.37;68.54
43161;BME280;40968;52.342;5.528;2022-10-31T11:52:18;101880.16;;;16.39;68.58
43161;BME280;40968;52.342;5.528;2022-10-31T11:54:47;101874.63;;;16.40;68.78
43161;BME280;40968;52.342;5.528;2022-10-31T11:57:22;101874.22;;;16.45;68.79
43161;BME280;40968;52.342;5.528;2022-10-31T11:59:52;101876.56;;;16.50;68.49
43161;BME280;40968;52.342;5.528;2022-10-31T12:02:20;101812.56;;;16.16;68.84
43161;BME280;40968;52.342;5.528;2022-10-31T12:04:51;101759.06;;;15.87;68.17
43161;BME280;40968;52.342;5.528;2022-10-31T12:07:22;101782.34;;;16.11;68.36
43161;BME280;40968;52.342;5.528;2022-10-31T12:09:48;101623.84;;;15.22;67.96
43161;BME280;40968;52.342;5.528;2022-10-31T12:12:33;101620.28;;;15.22;67.63
43161;BME280;40968;52.342;5.528;2022-10-31T12:15:15;101839.28;;;16.53;67.48
43161;BME280;40968;52.342;5.528;2022-10-31T12:17:48;101757.91;;;16.13;67.75
43161;BME280;40968;52.342;5.528;2022-10-31T12:20:25;101612.78;;;15.37;67.57
43161;BME280;40968;52.342;5.528;2022-10-31T12:23:01;101807.28;;;16.58;67.67
43161;BME280;40968;52.342;5.528;2022-10-31T12:25:38;101731.22;;;16.19;67.78
43161;BME280;40968;52.342;5.528;2022-10-31T12:28:41;101739.25;;;16.31;67.98
43161;BME280;40968;52.342;5.528;2022-10-31T12:31:19;101726.03;;;16.16;68.16
43161;BME280;40968;52.342;5.528;2022-10-31T12:33:57;101671.13;;;15.83;68.75
43161;BME280;40968;52.342;5.528;2022-10-31T12:36:36;101750.69;;;16.34;68.67
43161;BME280;40968;52.342;5.528;2022-10-31T12:39:17;101776.56;;;16.48;68.83
43161;BME280;40968;52.342;5.528;2022-10-31T12:41:52;101783.59;;;16.51;69.21
43161;BME280;40968;52.342;5.528;2022-10-31T12:44:47;101772.00;;;16.49;69.89
43161;BME280;40968;52.342;5.528;2022-10-31T12:50:27;101654.13;;;15.93;69.87
43161;BME280;40968;52.342;5.528;2022-10-31T12:53:05;101757.03;;;16.45;69.92
43161;BME280;40968;52.342;5.528;2022-10-31T12:55:43;101669.09;;;15.97;70.15
43161;BME280;40968;52.342;5.528;2022-10-31T12:58:19;101746.28;;;16.54;69.96
43161;BME280;40968;52.342;5.528;2022-10-31T13:00:51;101516.69;;;15.23;69.92
43161;BME280;40968;52.342;5.528;2022-10-31T13:03:28;101711.19;;;16.43;69.69
43161;BME280;40968;52.342;5.528;2022-10-31T13:06:03;101690.31;;;16.34;69.93
43161;BME280;40968;52.342;5.528;2022-10-31T13:08:36;101717.53;;;16.53;69.85